Nicholson, Kentucky
Current Conditions -  °F | °C
As of 3:52 AM on Saturday 22 Nov 2014 (Local Time) from KCVG Reporting Station
Light Rain Light Rain  
Wind Chill: 34°   Ceiling: 3000
Heat Index: 34°   Visibility: 10mi
Dew Point: 20°   Wind: 3mph
Humidity: 56%   Direction: 210°SSW
Pressure: 30.32"   Gusts: NA
Location:  38.9286°N, 84.5381°W
Report Text: KCVG 220852Z 21003KT 10SM -RA BKN030 OVC038 01/M07 A3032 RMK AO2 RAB35 SLP273 P0000 60000 T00111067 56008
Loading
Personal Weather Stations






























Interactive Weather Map New forecast layout! Learn more

10-Day Weather Forecast

Advertisements
Track Severe Weather on mobile